createdAt,value
2023-03-27T00:00:18.755Z,982.03
2023-03-27T00:01:17.779Z,982.08
2023-03-27T00:02:17.757Z,982.09
2023-03-27T00:03:17.842Z,982.07
2023-03-27T00:04:18.151Z,982.29
2023-03-27T00:05:17.725Z,982.13
2023-03-27T00:06:17.697Z,982.18
2023-03-27T00:07:17.687Z,982.37
2023-03-27T00:08:17.669Z,982.17
2023-03-27T00:09:17.672Z,982.24
2023-03-27T00:10:17.662Z,982.33
2023-03-27T00:11:17.628Z,982.50
2023-03-27T00:12:17.618Z,982.37
2023-03-27T00:13:17.619Z,982.41
2023-03-27T00:14:17.607Z,982.36
2023-03-27T00:15:17.650Z,982.40
2023-03-27T00:16:17.614Z,982.55
2023-03-27T00:17:17.571Z,982.50
2023-03-27T00:18:17.565Z,982.60
2023-03-27T00:19:17.812Z,982.59
2023-03-27T00:20:17.545Z,982.55
2023-03-27T00:21:17.561Z,982.62
2023-03-27T00:22:17.509Z,982.60
2023-03-27T00:23:17.514Z,982.69
2023-03-27T00:24:17.503Z,982.75
2023-03-27T00:25:17.503Z,982.75
2023-03-27T00:26:17.498Z,982.80
2023-03-27T00:27:17.476Z,982.75
2023-03-27T00:28:17.470Z,982.82
2023-03-27T00:29:17.444Z,982.66
2023-03-27T00:30:17.453Z,982.73
2023-03-27T00:31:17.527Z,982.75
2023-03-27T00:32:17.405Z,982.83
2023-03-27T00:33:17.414Z,982.73
2023-03-27T00:34:17.413Z,982.84
2023-03-27T00:35:17.476Z,982.96
2023-03-27T00:36:17.383Z,982.84
2023-03-27T00:37:17.354Z,982.86
2023-03-27T00:38:17.357Z,982.92
2023-03-27T00:39:17.341Z,982.87
2023-03-27T00:40:17.310Z,982.93
2023-03-27T00:41:17.401Z,983.09
2023-03-27T00:42:17.287Z,982.87
2023-03-27T00:43:17.287Z,982.96
2023-03-27T00:44:17.290Z,982.98
2023-03-27T00:45:17.268Z,982.97
2023-03-27T00:46:17.278Z,983.04
2023-03-27T00:47:17.243Z,982.95
2023-03-27T00:48:17.232Z,982.97
2023-03-27T00:49:17.273Z,983.06
2023-03-27T00:50:17.216Z,982.97
2023-03-27T00:51:17.229Z,983.09
2023-03-27T00:52:17.195Z,983.18
2023-03-27T00:53:17.190Z,983.07
2023-03-27T00:54:17.193Z,983.10
2023-03-27T00:55:17.141Z,983.01
2023-03-27T00:56:17.140Z,983.08
2023-03-27T00:57:17.159Z,983.13
2023-03-27T00:58:17.143Z,983.15
2023-03-27T00:59:17.130Z,983.11
2023-03-27T01:00:17.148Z,983.18
2023-03-27T01:01:18.140Z,983.17
2023-03-27T01:02:17.113Z,983.26
2023-03-27T01:03:17.150Z,983.43
2023-03-27T01:04:17.060Z,983.33
2023-03-27T01:05:17.042Z,983.42
2023-03-27T01:06:17.268Z,983.26
2023-03-27T01:07:17.034Z,983.35
2023-03-27T01:08:17.023Z,983.41
2023-03-27T01:09:20.627Z,983.31
2023-03-27T01:10:16.994Z,983.39
2023-03-27T01:11:17.000Z,983.44
2023-03-27T01:12:16.982Z,983.44
2023-03-27T01:13:16.977Z,983.40
2023-03-27T01:14:16.940Z,983.55
2023-03-27T01:15:16.954Z,983.55
2023-03-27T01:16:16.965Z,983.55
2023-03-27T01:17:16.942Z,983.46
2023-03-27T01:18:16.917Z,983.56
2023-03-27T01:19:16.917Z,983.45
2023-03-27T01:20:16.881Z,983.50
2023-03-27T01:21:16.887Z,983.50
2023-03-27T01:22:16.868Z,983.44
2023-03-27T01:23:16.878Z,983.58
2023-03-27T01:24:17.861Z,983.50
2023-03-27T01:25:16.837Z,983.51
2023-03-27T01:26:16.851Z,983.61
2023-03-27T01:27:17.819Z,983.56
2023-03-27T01:28:16.812Z,983.58
2023-03-27T01:29:16.803Z,983.57
2023-03-27T01:30:16.781Z,983.65
2023-03-27T01:31:16.795Z,983.57
2023-03-27T01:32:16.752Z,983.66
2023-03-27T01:33:16.757Z,983.64
2023-03-27T01:34:16.749Z,983.66
2023-03-27T01:35:16.800Z,983.64
2023-03-27T01:36:16.725Z,983.73
2023-03-27T01:37:16.690Z,983.75
2023-03-27T01:38:16.858Z,983.72
2023-03-27T01:39:16.663Z,983.63
2023-03-27T01:40:16.692Z,983.88
2023-03-27T01:41:16.657Z,983.74
2023-03-27T01:42:16.642Z,983.93
2023-03-27T01:43:16.677Z,983.99
2023-03-27T01:44:16.641Z,983.84
2023-03-27T01:45:16.621Z,984.07
2023-03-27T01:46:16.615Z,983.99
2023-03-27T01:47:16.585Z,983.97
2023-03-27T01:48:16.612Z,983.99
2023-03-27T01:49:16.565Z,984.01
2023-03-27T01:50:16.588Z,983.86
2023-03-27T01:51:16.556Z,984.09
2023-03-27T01:52:16.544Z,984.16
2023-03-27T01:53:16.539Z,984.08
2023-03-27T01:54:16.514Z,984.04
2023-03-27T01:55:17.529Z,984.13
2023-03-27T01:56:16.512Z,984.18
2023-03-27T01:57:16.545Z,984.17
2023-03-27T01:58:16.489Z,984.19
2023-03-27T01:59:16.521Z,984.17
2023-03-27T02:00:17.556Z,984.21
2023-03-27T02:01:16.521Z,984.21
2023-03-27T02:02:16.469Z,984.24
2023-03-27T02:03:16.418Z,984.33
2023-03-27T02:04:16.430Z,984.26
2023-03-27T02:05:16.476Z,984.33
2023-03-27T02:06:16.398Z,984.29
2023-03-27T02:07:16.400Z,984.23
2023-03-27T02:08:16.391Z,984.38
2023-03-27T02:09:16.370Z,984.39
2023-03-27T02:10:16.353Z,984.29
2023-03-27T02:11:16.389Z,984.46
2023-03-27T02:12:16.323Z,984.36
2023-03-27T02:13:16.322Z,984.46
2023-03-27T02:14:16.335Z,984.47
2023-03-27T02:15:27.381Z,984.53
2023-03-27T02:16:17.355Z,984.51
2023-03-27T02:17:16.278Z,984.60
2023-03-27T02:18:16.269Z,984.75
2023-03-27T02:19:16.268Z,984.67
2023-03-27T02:20:16.268Z,984.72
2023-03-27T02:21:16.245Z,984.65
2023-03-27T02:22:16.270Z,984.75
2023-03-27T02:23:16.221Z,984.72
2023-03-27T02:24:16.206Z,984.82
2023-03-27T02:25:16.198Z,984.84
2023-03-27T02:26:16.223Z,984.83
2023-03-27T02:27:16.178Z,984.79
2023-03-27T02:28:16.157Z,984.87
2023-03-27T02:29:16.158Z,984.82
2023-03-27T02:30:16.138Z,984.73
2023-03-27T02:31:33.516Z,984.97
2023-03-27T02:32:17.147Z,984.87
2023-03-27T02:33:16.146Z,984.95
2023-03-27T02:34:16.106Z,985.00
2023-03-27T02:35:16.106Z,984.98
2023-03-27T02:36:16.096Z,985.07
2023-03-27T02:37:16.093Z,985.02
2023-03-27T02:38:16.059Z,985.05
2023-03-27T02:39:16.045Z,985.06
2023-03-27T02:40:16.060Z,985.17
2023-03-27T02:41:16.041Z,985.08
2023-03-27T02:42:16.013Z,984.99
2023-03-27T02:43:16.018Z,985.19
2023-03-27T02:44:16.025Z,985.14
2023-03-27T02:45:15.973Z,985.16
2023-03-27T02:46:16.058Z,985.12
2023-03-27T02:47:15.944Z,985.17
2023-03-27T02:48:16.941Z,985.05
2023-03-27T02:49:15.966Z,985.22
2023-03-27T02:50:15.930Z,985.26
2023-03-27T02:51:15.952Z,985.26
2023-03-27T02:52:15.899Z,985.43
2023-03-27T02:53:15.894Z,985.33
2023-03-27T02:54:15.918Z,985.49
2023-03-27T02:55:15.883Z,985.48
2023-03-27T02:56:15.890Z,985.45
2023-03-27T02:57:15.892Z,985.55
2023-03-27T02:58:15.849Z,985.51
2023-03-27T02:59:15.827Z,985.55
2023-03-27T03:00:15.820Z,985.48
2023-03-27T03:01:15.903Z,985.64
2023-03-27T03:02:15.872Z,985.53
2023-03-27T03:03:15.843Z,985.66
2023-03-27T03:04:15.784Z,985.65
2023-03-27T03:05:15.774Z,985.69
2023-03-27T03:06:15.762Z,985.77
2023-03-27T03:07:15.769Z,985.72
2023-03-27T03:08:15.736Z,985.70
2023-03-27T03:09:15.727Z,985.87
2023-03-27T03:10:15.723Z,985.83
2023-03-27T03:11:48.669Z,985.87
2023-03-27T03:12:15.702Z,985.95
2023-03-27T03:13:15.681Z,985.91
2023-03-27T03:14:15.663Z,985.93
2023-03-27T03:15:15.673Z,985.93
2023-03-27T03:16:16.702Z,986.05
2023-03-27T03:17:15.640Z,986.00
2023-03-27T03:18:15.646Z,986.13
2023-03-27T03:19:15.622Z,986.12
2023-03-27T03:20:15.605Z,986.12
2023-03-27T03:21:15.630Z,986.16
2023-03-27T03:22:15.604Z,986.19
2023-03-27T03:23:15.588Z,986.18
2023-03-27T03:24:15.571Z,986.30
2023-03-27T03:25:15.682Z,986.29
2023-03-27T03:26:15.549Z,986.52
2023-03-27T03:27:15.548Z,986.24
2023-03-27T03:28:15.548Z,986.29
2023-03-27T03:29:15.496Z,986.39
2023-03-27T03:30:16.828Z,986.31
2023-03-27T03:31:15.550Z,986.33
2023-03-27T03:32:15.494Z,986.30
2023-03-27T03:33:15.455Z,986.33
2023-03-27T03:34:15.468Z,986.33
2023-03-27T03:35:15.488Z,986.29
2023-03-27T03:36:15.473Z,986.33
2023-03-27T03:37:15.410Z,986.35
2023-03-27T03:38:15.423Z,986.38
2023-03-27T03:39:15.450Z,986.34
2023-03-27T03:40:15.400Z,986.40
2023-03-27T03:41:15.377Z,986.44
2023-03-27T03:42:22.353Z,986.46
2023-03-27T03:43:16.348Z,986.51
2023-03-27T03:44:15.378Z,986.56
2023-03-27T03:45:15.401Z,986.49
2023-03-27T03:46:15.381Z,986.51
2023-03-27T03:47:15.352Z,986.53
2023-03-27T03:48:15.324Z,986.58
2023-03-27T03:49:15.316Z,986.63
2023-03-27T03:50:15.368Z,986.59
2023-03-27T03:51:15.377Z,986.60
2023-03-27T03:52:15.306Z,986.70
2023-03-27T03:53:15.238Z,986.80
2023-03-27T03:54:15.236Z,986.75
2023-03-27T03:55:15.273Z,986.83
2023-03-27T03:56:15.247Z,986.90
2023-03-27T03:57:15.424Z,986.95
2023-03-27T03:58:15.214Z,986.97
2023-03-27T03:59:15.176Z,986.91
2023-03-27T04:00:15.169Z,987.04
2023-03-27T04:01:15.192Z,987.03
2023-03-27T04:02:15.212Z,987.05
2023-03-27T04:03:15.254Z,987.03
2023-03-27T04:04:15.128Z,987.13
2023-03-27T04:05:15.171Z,987.13
2023-03-27T04:06:15.073Z,987.15
2023-03-27T04:07:16.114Z,987.09
2023-03-27T04:08:15.092Z,987.14
2023-03-27T04:09:15.119Z,987.15
2023-03-27T04:10:15.071Z,987.16
2023-03-27T04:11:15.071Z,987.22
2023-03-27T04:12:15.071Z,987.27
2023-03-27T04:13:15.027Z,987.28
2023-03-27T04:14:15.044Z,987.26
2023-03-27T04:15:15.008Z,987.29
2023-03-27T04:16:15.080Z,987.38
2023-03-27T04:17:15.003Z,987.43
2023-03-27T04:18:15.061Z,987.43
2023-03-27T04:19:14.961Z,987.42
2023-03-27T04:20:14.975Z,987.43
2023-03-27T04:21:15.067Z,987.40
2023-03-27T04:22:14.928Z,987.39
2023-03-27T04:23:14.944Z,987.45
2023-03-27T04:24:14.944Z,987.41
2023-03-27T04:25:14.889Z,987.37
2023-03-27T04:26:14.935Z,987.39
2023-03-27T04:27:14.889Z,987.38
2023-03-27T04:28:14.890Z,987.41
2023-03-27T04:29:14.848Z,987.53
2023-03-27T04:30:14.871Z,987.54
2023-03-27T04:31:14.864Z,987.47
2023-03-27T04:32:14.825Z,987.50
2023-03-27T04:33:14.838Z,987.55
2023-03-27T04:34:14.856Z,987.53
2023-03-27T04:35:14.787Z,987.48
2023-03-27T04:36:14.890Z,987.55
2023-03-27T04:37:14.781Z,987.60
2023-03-27T04:38:14.782Z,987.60
2023-03-27T04:39:14.755Z,987.50
2023-03-27T04:40:14.750Z,987.57
2023-03-27T04:41:14.762Z,987.61
2023-03-27T04:42:14.717Z,987.62
2023-03-27T04:43:14.697Z,987.63
2023-03-27T04:44:14.712Z,987.67
2023-03-27T04:45:14.692Z,987.67
2023-03-27T04:46:14.683Z,987.66
2023-03-27T04:47:14.760Z,987.72
2023-03-27T04:48:14.657Z,987.69
2023-03-27T04:49:14.636Z,987.67
2023-03-27T04:50:14.640Z,987.72
2023-03-27T04:51:14.630Z,987.70
2023-03-27T04:52:14.626Z,987.74
2023-03-27T04:53:14.600Z,987.77
2023-03-27T04:54:14.622Z,987.80
2023-03-27T04:55:14.564Z,987.85
2023-03-27T04:56:14.557Z,987.85
2023-03-27T04:57:14.595Z,987.86
2023-03-27T04:58:14.569Z,987.89
2023-03-27T04:59:14.515Z,987.92
2023-03-27T05:00:14.553Z,987.96
2023-03-27T05:01:14.566Z,987.97
2023-03-27T05:02:14.497Z,987.98
2023-03-27T05:03:14.565Z,987.98
2023-03-27T05:04:14.476Z,988.04
2023-03-27T05:05:14.454Z,988.06
2023-03-27T05:06:14.477Z,987.97
2023-03-27T05:07:14.476Z,988.06
2023-03-27T05:08:14.454Z,988.01
2023-03-27T05:09:14.428Z,988.05
2023-03-27T05:10:14.438Z,988.11
2023-03-27T05:11:14.419Z,988.06
2023-03-27T05:12:14.424Z,988.10
2023-03-27T05:13:14.379Z,988.15
2023-03-27T05:14:14.372Z,988.19
2023-03-27T05:15:14.381Z,988.19
2023-03-27T05:16:14.398Z,988.23
2023-03-27T05:17:14.336Z,988.21
2023-03-27T05:18:14.363Z,988.26
2023-03-27T05:19:14.306Z,988.26
2023-03-27T05:20:14.315Z,988.27
2023-03-27T05:21:14.331Z,988.30
2023-03-27T05:22:14.290Z,988.27
2023-03-27T05:23:14.255Z,988.31
2023-03-27T05:24:14.299Z,988.32
2023-03-27T05:25:14.277Z,988.33
2023-03-27T05:26:14.238Z,988.35
2023-03-27T05:27:14.261Z,988.39
2023-03-27T05:28:14.239Z,988.42
2023-03-27T05:29:14.185Z,988.49
2023-03-27T05:30:14.202Z,988.40
2023-03-27T05:31:14.259Z,988.43
2023-03-27T05:32:14.174Z,988.50
2023-03-27T05:33:14.217Z,988.49
2023-03-27T05:34:14.161Z,988.55
2023-03-27T05:35:14.123Z,988.49
2023-03-27T05:36:14.140Z,988.53
2023-03-27T05:37:14.137Z,988.50
2023-03-27T05:38:14.124Z,988.55
2023-03-27T05:39:14.078Z,988.56
2023-03-27T05:40:14.086Z,988.56
2023-03-27T05:41:14.081Z,988.57
2023-03-27T05:42:14.085Z,988.57
2023-03-27T05:43:14.042Z,988.54
2023-03-27T05:44:14.026Z,988.60
2023-03-27T05:45:15.039Z,988.58
2023-03-27T05:46:14.038Z,988.59
2023-03-27T05:47:15.004Z,988.65
2023-03-27T05:48:14.020Z,988.74
2023-03-27T05:49:14.042Z,988.66
2023-03-27T05:50:13.955Z,988.70
2023-03-27T05:51:13.979Z,988.71
2023-03-27T05:52:13.974Z,988.75
2023-03-27T05:53:13.943Z,988.80
2023-03-27T05:54:13.998Z,988.75
2023-03-27T05:55:13.945Z,988.76
2023-03-27T05:56:13.912Z,988.84
2023-03-27T05:57:13.937Z,988.86
2023-03-27T05:58:13.913Z,988.83
2023-03-27T05:59:13.871Z,988.86
2023-03-27T06:00:13.940Z,988.92
2023-03-27T06:01:13.881Z,988.89
2023-03-27T06:02:13.882Z,988.93
2023-03-27T06:03:14.037Z,988.92
2023-03-27T06:04:13.859Z,989.02
2023-03-27T06:05:13.835Z,988.88
2023-03-27T06:06:13.805Z,988.96
2023-03-27T06:07:13.828Z,988.94
2023-03-27T06:08:13.785Z,988.95
2023-03-27T06:09:13.758Z,988.96
2023-03-27T06:10:14.428Z,988.97
2023-03-27T06:11:13.759Z,988.97
2023-03-27T06:12:13.757Z,988.99
2023-03-27T06:13:13.841Z,989.04
2023-03-27T06:14:13.737Z,989.01
2023-03-27T06:15:13.751Z,989.12
2023-03-27T06:16:13.738Z,989.10
2023-03-27T06:17:13.679Z,989.09
2023-03-27T06:18:13.666Z,989.01
2023-03-27T06:19:13.689Z,989.09
2023-03-27T06:20:13.652Z,989.12
2023-03-27T06:21:13.632Z,989.14
2023-03-27T06:22:13.653Z,989.16
2023-03-27T06:23:13.602Z,989.16
2023-03-27T06:24:13.620Z,989.17
2023-03-27T06:25:13.625Z,989.12
2023-03-27T06:26:13.599Z,989.14
2023-03-27T06:27:13.569Z,989.19
2023-03-27T06:28:13.562Z,989.22
2023-03-27T06:29:13.574Z,989.23
2023-03-27T06:30:13.591Z,989.19
2023-03-27T06:31:13.581Z,989.20
2023-03-27T06:32:13.523Z,989.23
2023-03-27T06:33:13.573Z,989.20
2023-03-27T06:34:13.505Z,989.20
2023-03-27T06:35:13.508Z,989.22
2023-03-27T06:36:13.534Z,989.25
2023-03-27T06:37:13.462Z,989.28
2023-03-27T06:38:13.483Z,989.25
2023-03-27T06:39:13.446Z,989.30
2023-03-27T06:40:13.439Z,989.30
2023-03-27T06:41:13.457Z,989.18
2023-03-27T06:42:13.638Z,989.23
2023-03-27T06:43:13.397Z,989.27
2023-03-27T06:44:13.410Z,989.30
2023-03-27T06:45:13.421Z,989.27
2023-03-27T06:46:13.403Z,989.35
2023-03-27T06:47:13.380Z,989.33
2023-03-27T06:48:20.609Z,989.27
2023-03-27T06:49:15.389Z,989.35
2023-03-27T06:50:13.339Z,989.36
2023-03-27T06:51:13.316Z,989.29
2023-03-27T06:52:13.327Z,989.36
2023-03-27T06:53:25.755Z,989.34
2023-03-27T06:54:15.287Z,989.33
2023-03-27T06:55:15.074Z,989.37
2023-03-27T06:56:13.276Z,989.41
2023-03-27T06:57:13.269Z,989.36
2023-03-27T06:58:13.277Z,989.43
2023-03-27T06:59:13.260Z,989.34
2023-03-27T07:00:13.258Z,989.44
2023-03-27T07:01:13.202Z,989.50
2023-03-27T07:02:13.285Z,989.30
2023-03-27T07:03:13.204Z,989.38
2023-03-27T07:04:13.174Z,989.51
2023-03-27T07:05:13.225Z,989.47
2023-03-27T07:06:13.173Z,989.46
2023-03-27T07:07:13.131Z,989.54
2023-03-27T07:08:22.384Z,989.45
2023-03-27T07:09:15.140Z,989.50
2023-03-27T07:10:13.139Z,989.55
2023-03-27T07:11:13.126Z,989.55
2023-03-27T07:12:13.108Z,989.54
2023-03-27T07:13:13.089Z,989.57
2023-03-27T07:14:13.075Z,989.55
2023-03-27T07:15:13.089Z,989.56
2023-03-27T07:16:13.075Z,989.56
2023-03-27T07:17:13.016Z,989.59
2023-03-27T07:18:13.076Z,989.55
2023-03-27T07:19:13.049Z,989.56
2023-03-27T07:20:13.028Z,989.60
2023-03-27T07:21:13.011Z,989.49
2023-03-27T07:22:12.987Z,989.55
2023-03-27T07:23:12.993Z,989.56
2023-03-27T07:24:12.971Z,989.61
2023-03-27T07:25:12.937Z,989.61
2023-03-27T07:26:12.985Z,989.59
2023-03-27T07:27:12.931Z,989.60
2023-03-27T07:28:12.915Z,989.70
2023-03-27T07:29:12.929Z,989.62
2023-03-27T07:30:12.912Z,989.70
2023-03-27T07:31:25.887Z,989.61
2023-03-27T07:32:22.290Z,989.66
2023-03-27T07:33:14.962Z,989.65
2023-03-27T07:34:12.936Z,989.69
2023-03-27T07:35:12.871Z,989.71
2023-03-27T07:36:12.853Z,989.76
2023-03-27T07:37:12.826Z,989.76
2023-03-27T07:38:12.837Z,989.78
2023-03-27T07:39:12.842Z,989.83
2023-03-27T07:40:12.811Z,989.87
2023-03-27T07:41:12.774Z,989.86
2023-03-27T07:42:12.802Z,989.88
2023-03-27T07:43:12.758Z,989.90
2023-03-27T07:44:12.753Z,989.85
2023-03-27T07:45:12.791Z,989.88
2023-03-27T07:46:12.798Z,989.91
2023-03-27T07:47:12.712Z,989.90
2023-03-27T07:48:12.730Z,989.96
2023-03-27T07:49:12.716Z,989.84
2023-03-27T07:50:12.702Z,989.89
2023-03-27T07:51:14.118Z,989.90
2023-03-27T07:52:15.326Z,989.92
2023-03-27T07:53:34.072Z,989.98
2023-03-27T07:54:13.664Z,990.00
2023-03-27T07:55:12.635Z,989.99
2023-03-27T07:56:12.643Z,990.00
2023-03-27T07:57:12.730Z,989.98
2023-03-27T07:58:12.722Z,990.05
2023-03-27T07:59:12.631Z,990.07
2023-03-27T08:00:12.607Z,990.15
2023-03-27T08:01:12.578Z,990.06
2023-03-27T08:02:12.581Z,990.08
2023-03-27T08:03:12.697Z,990.12
2023-03-27T08:04:12.665Z,990.07
2023-03-27T08:05:12.650Z,990.07
2023-03-27T08:06:12.573Z,989.99
2023-03-27T08:07:12.495Z,990.13
2023-03-27T08:08:12.516Z,990.15
2023-03-27T08:09:12.715Z,990.17
2023-03-27T08:10:12.501Z,990.18
2023-03-27T08:11:23.164Z,990.15
2023-03-27T08:12:14.459Z,989.96
2023-03-27T08:13:12.475Z,990.12
2023-03-27T08:14:12.443Z,990.17
2023-03-27T08:15:12.442Z,990.19
2023-03-27T08:16:12.437Z,990.20
2023-03-27T08:17:16.395Z,990.22
2023-03-27T08:18:13.422Z,990.21
2023-03-27T08:19:12.417Z,990.21
2023-03-27T08:20:12.377Z,990.05
2023-03-27T08:21:12.350Z,990.12
2023-03-27T08:22:12.364Z,990.22
2023-03-27T08:23:12.329Z,990.19
2023-03-27T08:24:12.338Z,990.19
2023-03-27T08:25:12.332Z,990.19
2023-03-27T08:26:12.339Z,990.22
2023-03-27T08:27:12.310Z,990.23
2023-03-27T08:28:12.279Z,990.20
2023-03-27T08:29:12.304Z,990.24
2023-03-27T08:30:12.250Z,990.20
2023-03-27T08:31:12.329Z,990.23
2023-03-27T08:32:13.277Z,990.28
2023-03-27T08:33:12.208Z,990.20
2023-03-27T08:34:12.232Z,990.24
2023-03-27T08:35:12.403Z,990.14
2023-03-27T08:36:12.349Z,990.16
2023-03-27T08:37:12.201Z,990.12
2023-03-27T08:38:25.799Z,990.19
2023-03-27T08:39:14.151Z,990.22
2023-03-27T08:40:12.154Z,990.16
2023-03-27T08:41:12.197Z,990.21
2023-03-27T08:42:12.141Z,990.21
2023-03-27T08:43:12.102Z,990.15
2023-03-27T08:44:12.123Z,990.20
2023-03-27T08:45:12.122Z,990.31
2023-03-27T08:46:12.074Z,990.21
2023-03-27T08:47:12.103Z,990.36
2023-03-27T08:48:12.076Z,990.33
2023-03-27T08:49:12.070Z,990.31
2023-03-27T08:50:12.070Z,990.18
2023-03-27T08:51:12.048Z,990.20
2023-03-27T08:52:12.028Z,990.23
2023-03-27T08:53:12.020Z,990.26
2023-03-27T08:54:12.020Z,990.22
2023-03-27T08:55:12.025Z,990.20
2023-03-27T08:56:11.996Z,990.39
2023-03-27T08:57:12.034Z,990.33
2023-03-27T08:58:11.961Z,990.25
2023-03-27T08:59:12.008Z,990.31
2023-03-27T09:00:11.956Z,990.47
2023-03-27T09:01:11.939Z,990.42
2023-03-27T09:02:12.016Z,990.41
2023-03-27T09:03:12.029Z,990.46
2023-03-27T09:04:11.898Z,990.47
2023-03-27T09:05:11.983Z,990.57
2023-03-27T09:06:11.906Z,990.53
2023-03-27T09:07:11.872Z,990.62
2023-03-27T09:08:11.897Z,990.60
2023-03-27T09:09:11.874Z,990.58
2023-03-27T09:10:11.850Z,990.47
2023-03-27T09:11:11.840Z,990.51
2023-03-27T09:12:11.843Z,990.55
2023-03-27T09:13:11.895Z,990.62
2023-03-27T09:14:11.805Z,990.65
2023-03-27T09:15:11.827Z,990.51
2023-03-27T09:16:11.848Z,990.44
2023-03-27T09:17:11.774Z,990.50
2023-03-27T09:18:11.788Z,990.49
2023-03-27T09:19:11.752Z,990.26
2023-03-27T09:20:11.744Z,990.53
2023-03-27T09:21:11.738Z,990.60
2023-03-27T09:22:11.759Z,990.56
2023-03-27T09:23:11.692Z,990.53
2023-03-27T09:24:11.689Z,990.47
2023-03-27T09:25:11.708Z,990.53
2023-03-27T09:26:11.671Z,990.48
2023-03-27T09:27:11.703Z,990.68
2023-03-27T09:28:11.662Z,990.53
2023-03-27T09:29:11.679Z,990.47
2023-03-27T09:30:12.643Z,990.48
2023-03-27T09:31:11.683Z,990.57
2023-03-27T09:32:11.620Z,990.49
2023-03-27T09:33:11.722Z,990.57
2023-03-27T09:34:11.616Z,990.56
2023-03-27T09:35:11.611Z,990.57
2023-03-27T09:36:11.587Z,990.49
2023-03-27T09:37:11.544Z,990.56
2023-03-27T09:38:11.572Z,990.58
2023-03-27T09:39:11.552Z,990.67
2023-03-27T09:40:11.535Z,990.56
2023-03-27T09:41:11.496Z,990.49
2023-03-27T09:42:11.533Z,990.56
2023-03-27T09:43:11.524Z,990.67
2023-03-27T09:44:11.497Z,990.61
2023-03-27T09:45:11.504Z,990.70
2023-03-27T09:46:11.492Z,990.67
2023-03-27T09:47:11.447Z,990.59
2023-03-27T09:48:11.482Z,990.63
2023-03-27T09:49:11.453Z,990.63
2023-03-27T09:50:11.432Z,990.62
2023-03-27T09:51:11.425Z,990.66
2023-03-27T09:52:11.405Z,990.55
2023-03-27T09:53:11.392Z,990.81
2023-03-27T09:54:11.398Z,990.59
2023-03-27T09:55:11.418Z,990.60
2023-03-27T09:56:11.368Z,990.66
2023-03-27T09:57:11.446Z,990.69
2023-03-27T09:58:11.352Z,990.73
2023-03-27T09:59:11.360Z,990.67
2023-03-27T10:00:11.351Z,990.68
2023-03-27T10:01:11.385Z,990.69
2023-03-27T10:02:11.294Z,990.68
2023-03-27T10:03:11.366Z,990.67
2023-03-27T10:04:11.314Z,990.68
2023-03-27T10:05:11.267Z,990.70
2023-03-27T10:06:11.285Z,990.72
2023-03-27T10:07:44.782Z,990.72
2023-03-27T10:08:11.256Z,990.57
2023-03-27T10:09:11.263Z,990.64
2023-03-27T10:10:11.224Z,990.65
2023-03-27T10:11:11.197Z,990.73
2023-03-27T10:12:11.222Z,990.67
2023-03-27T10:13:11.220Z,990.65
2023-03-27T10:14:11.187Z,990.70
2023-03-27T10:15:11.184Z,990.73
2023-03-27T10:16:11.200Z,990.80
2023-03-27T10:17:11.138Z,990.75
2023-03-27T10:18:11.191Z,990.84
2023-03-27T10:19:11.159Z,990.85
2023-03-27T10:20:11.153Z,990.75
2023-03-27T10:21:11.092Z,990.76
2023-03-27T10:22:14.193Z,990.78
2023-03-27T10:23:11.114Z,990.76
2023-03-27T10:24:11.080Z,990.73
2023-03-27T10:25:11.095Z,990.70
2023-03-27T10:26:11.087Z,990.66
2023-03-27T10:27:11.037Z,990.61
2023-03-27T10:28:36.375Z,990.60
2023-03-27T10:29:11.020Z,990.64
2023-03-27T10:30:11.032Z,990.55
2023-03-27T10:31:11.016Z,990.55
2023-03-27T10:32:11.126Z,990.56
2023-03-27T10:33:11.098Z,990.52
2023-03-27T10:34:10.973Z,990.52
2023-03-27T10:35:10.957Z,990.58
2023-03-27T10:36:10.974Z,990.57
2023-03-27T10:37:10.953Z,990.69
2023-03-27T10:38:10.935Z,990.66
2023-03-27T10:39:10.924Z,990.64
2023-03-27T10:40:10.929Z,990.70
2023-03-27T10:41:10.915Z,990.67
2023-03-27T10:42:10.997Z,990.70
2023-03-27T10:43:12.646Z,990.71
2023-03-27T10:44:10.890Z,990.97
2023-03-27T10:45:10.868Z,991.13
2023-03-27T10:46:10.890Z,991.07
2023-03-27T10:47:10.842Z,991.08
2023-03-27T10:48:10.897Z,991.14
2023-03-27T10:49:10.860Z,991.24
2023-03-27T10:50:10.825Z,991.18
2023-03-27T10:51:10.796Z,991.07
2023-03-27T10:52:10.790Z,991.05
2023-03-27T10:53:10.876Z,991.12
2023-03-27T10:54:10.808Z,991.08
2023-03-27T10:55:10.757Z,991.13
2023-03-27T10:56:10.740Z,991.08
2023-03-27T10:57:10.788Z,991.17
2023-03-27T10:58:10.738Z,991.16
2023-03-27T10:59:10.723Z,991.17
2023-03-27T11:00:10.765Z,991.16
2023-03-27T11:01:10.729Z,991.16
2023-03-27T11:02:10.671Z,991.20
2023-03-27T11:03:10.816Z,991.16
2023-03-27T11:04:10.690Z,991.08
2023-03-27T11:05:10.651Z,991.14
2023-03-27T11:06:10.625Z,991.11
2023-03-27T11:07:10.630Z,991.10
2023-03-27T11:08:10.636Z,991.06
2023-03-27T11:09:10.606Z,991.20
2023-03-27T11:10:10.602Z,991.17
2023-03-27T11:11:10.589Z,991.10
2023-03-27T11:12:10.565Z,991.10
2023-03-27T11:13:10.576Z,991.14
2023-03-27T11:14:10.596Z,991.18
2023-03-27T11:15:10.532Z,991.13
2023-03-27T11:16:10.532Z,991.14
2023-03-27T11:17:10.560Z,991.16
2023-03-27T11:18:10.571Z,991.07
2023-03-27T11:19:10.512Z,991.14
2023-03-27T11:20:10.496Z,991.13
2023-03-27T11:21:10.472Z,991.14
2023-03-27T11:22:10.479Z,991.09
2023-03-27T11:23:10.460Z,991.10
2023-03-27T11:24:10.459Z,991.15
2023-03-27T11:25:10.439Z,991.10
2023-03-27T11:26:10.449Z,991.08
2023-03-27T11:27:11.404Z,991.05
2023-03-27T11:28:10.423Z,991.04
2023-03-27T11:29:10.407Z,991.11
2023-03-27T11:30:10.397Z,991.02
2023-03-27T11:31:12.306Z,990.95
2023-03-27T11:32:10.383Z,990.93
2023-03-27T11:33:10.408Z,990.92
2023-03-27T11:34:10.363Z,990.94
2023-03-27T11:35:10.357Z,990.92
2023-03-27T11:36:10.342Z,990.95
2023-03-27T11:37:10.312Z,990.84
2023-03-27T11:38:10.300Z,991.01
2023-03-27T11:39:10.287Z,991.10
2023-03-27T11:40:10.285Z,991.07
2023-03-27T11:41:10.285Z,991.31
2023-03-27T11:42:10.269Z,991.09
2023-03-27T11:43:10.260Z,991.13
2023-03-27T11:44:10.253Z,991.15
2023-03-27T11:45:10.241Z,991.10
2023-03-27T11:46:10.224Z,991.04
2023-03-27T11:47:10.245Z,991.08
2023-03-27T11:48:11.209Z,991.08
2023-03-27T11:49:11.180Z,991.24
2023-03-27T11:50:10.184Z,991.14
2023-03-27T11:51:10.160Z,991.07
2023-03-27T11:52:10.161Z,991.10
2023-03-27T11:53:10.150Z,991.10
2023-03-27T11:54:10.143Z,991.09
2023-03-27T11:55:10.184Z,991.08
2023-03-27T11:56:10.138Z,991.07
2023-03-27T11:57:10.146Z,991.25
2023-03-27T11:58:10.116Z,991.09
2023-03-27T11:59:10.095Z,991.10
2023-03-27T12:00:10.095Z,991.16
2023-03-27T12:01:10.073Z,991.20
2023-03-27T12:02:10.077Z,991.16
2023-03-27T12:03:10.146Z,991.22
2023-03-27T12:04:10.119Z,991.25
2023-03-27T12:05:10.028Z,991.26
2023-03-27T12:06:10.020Z,991.25
2023-03-27T12:07:12.196Z,991.33
2023-03-27T12:08:11.033Z,991.30
2023-03-27T12:09:09.985Z,991.33
2023-03-27T12:10:10.038Z,991.40
2023-03-27T12:11:09.972Z,991.45
2023-03-27T12:12:09.963Z,991.40
2023-03-27T12:13:09.934Z,991.24
2023-03-27T12:14:17.522Z,991.31
2023-03-27T12:15:11.929Z,991.28
2023-03-27T12:16:09.940Z,991.28
2023-03-27T12:17:09.939Z,991.22
2023-03-27T12:18:09.959Z,991.14
2023-03-27T12:19:21.047Z,991.17
2023-03-27T12:20:11.878Z,991.14
2023-03-27T12:21:09.870Z,991.19
2023-03-27T12:22:21.017Z,991.13
2023-03-27T12:23:11.842Z,991.12
2023-03-27T12:24:09.831Z,991.08
2023-03-27T12:25:09.834Z,991.24
2023-03-27T12:26:09.825Z,991.16
2023-03-27T12:27:09.816Z,991.10
2023-03-27T12:28:22.037Z,991.21